aviador You're here:

KRST Decoded Metar

ROCHESTER in MN, USA
Report Time2017-05-23 13:54:00
UTC Time2017-05-23 14:34:07
Flight Rules vfr VFR
Wind330° at 07 kt
W.Decomp.*RWY 31: 6.6 kt HW 2.3 kt RCW
RWY 02: 4.4 kt HW 5.4 kt LCW
W.Rank330° ranks 12
Current wind is below 330° avg. (10.9)
Visibility9999 m
Phenomena:N/A
Clouds:Overcast 049 Hf
Expected CloudBase > 400 ft AGL from Temp-Dew spread
Ceiling4,900 ft
Temp10°C (ISA -2)
Dew Point09°C (94% RH)
AAT7.3°C
QNH1009 hPa
Density Alt1,335 ft
Elevation1,322 ft
Report Wrong Elevation
Raw Report
KRST 231354Z 33007KT 10SM OVC049 10/09 A2981 RMK AO2 SLP098
T01000089=

Extra information for KRST:More info

Metar Taf Metar & Taf Last 4 Metars F.Rules Stats Wind Profile Meteogram Temp Stats Airport Information Weather charts Add Link Nearby VenuesMetar ALERT Operation Metar Decoded Social comments

AIRNAV info for KRST